Impacts METAR Board
IDs:

KCOM - Coleman Muni, TX, US

Updated at: 0600 UTC 19 Aug 2019
Potential Impact None Slight Moderate High
Time 18/18Z 18/19Z 18/20Z 18/21Z 18/22Z 18/23Z 19/00Z 19/01Z 19/02Z 19/03Z 19/04Z 19/05Z 19/06Z
Temp98 100 101 102 103 102 101 97 93 91 90 87 83
Dewpt62 60 60 59 58 56 54 53 55 58 59 59 60
Altim29.91 29.90 29.88 29.87 29.85 29.85 29.84 29.85 29.86 29.88 29.91 29.93 29.93
VIS10 10 10 10 10 10 10 10 10 10 10 10 10
CIG-- -- -- -- -- -- -- -- -- -- -- -- --
CoverCLRCLRCLRCLRCLRCLRCLRCLRCLRCLRCLRCLRCLR
FltCatVFRVFRVFRVFRVFRVFRVFRVFRVFRVFRVFRVFRVFR
WX--------------------------
WDir200180130150150140130130160
WSpd11 7 11 9 11 9 11 9 4
WGst15 -- 20 15 17 17 16 -- -- -- -- -- --
Raw hourly METARs
KCOM 181755Z AUTO 20011G15KT 10SM CLR 37/16 A2991 RMK AO2 T03680164 10368 20261
KCOM 181855Z AUTO 18007KT 10SM CLR 38/15 A2990 RMK AO2 T03770154
KCOM 181955Z AUTO 13011G20KT 10SM CLR 39/15 A2988 RMK AO2 T03860154
KCOM 182055Z AUTO 15009G15KT 10SM CLR 39/15 A2987 RMK AO2 T03910148
KCOM 182155Z AUTO 15011G17KT 10SM CLR 40/14 A2985 RMK AO2 T03960142
KCOM 182255Z AUTO 14009G17KT 10SM CLR 39/13 A2985 RMK AO2 T03900131
KCOM 182355Z AUTO 13011G16KT 10SM CLR 38/12 A2984 RMK AO2 T03820123 10399 20364
KCOM 190055Z AUTO 13009KT 10SM CLR 36/12 A2985 RMK AO2 T03620115
KCOM 190155Z AUTO 10SM CLR 34/13 A2986 RMK AO2 T03370126
KCOM 190255Z AUTO 10SM CLR 33/14 A2988 RMK AO2 T03300142
KCOM 190355Z AUTO 16004KT 10SM CLR 32/15 A2991 RMK AO2 T03210148
KCOM 190455Z AUTO 10SM CLR 30/15 A2993 RMK AO2 T03030151
KCOM 190555Z AUTO 10SM CLR 28/15 A2993 RMK AO2 T02810153 10381 20281 403990261



Page loaded:  06:14 UTC  |   11:14 PM Pacific  |   12:14 AM Mountain  |   01:14 AM Central  |   02:14 AM Eastern

 

ADVISORIES

FORECASTS

FORECASTS

OBSERVATIONS

USER TOOLS

ABOUT US